sensor_id;sensor_type;location;lat;lon;timestamp;temperature;humidity
61807;DHT22;47726;52.766;6.606;2022-09-09T00:04:12;15.70;99.90
61807;DHT22;47726;52.766;6.606;2022-09-09T00:09:27;15.70;99.90
61807;DHT22;47726;52.766;6.606;2022-09-09T00:12:49;15.70;99.90
61807;DHT22;47726;52.766;6.606;2022-09-09T00:14:56;15.60;99.90
61807;DHT22;47726;52.766;6.606;2022-09-09T00:17:47;15.60;99.90
61807;DHT22;47726;52.766;6.606;2022-09-09T00:20:24;15.60;99.90
61807;DHT22;47726;52.766;6.606;2022-09-09T00:23:00;15.60;99.90
61807;DHT22;47726;52.766;6.606;2022-09-09T00:25:37;15.50;99.90
61807;DHT22;47726;52.766;6.606;2022-09-09T00:28:16;15.50;99.90
61807;DHT22;47726;52.766;6.606;2022-09-09T00:30:43;15.50;99.90
61807;DHT22;47726;52.766;6.606;2022-09-09T00:33:11;15.50;99.90
61807;DHT22;47726;52.766;6.606;2022-09-09T00:35:44;15.50;99.90
61807;DHT22;47726;52.766;6.606;2022-09-09T00:38:37;15.50;99.90
61807;DHT22;47726;52.766;6.606;2022-09-09T00:41:14;15.50;99.90
61807;DHT22;47726;52.766;6.606;2022-09-09T00:43:46;15.50;99.90
61807;DHT22;47726;52.766;6.606;2022-09-09T00:51:50;15.40;99.90
61807;DHT22;47726;52.766;6.606;2022-09-09T00:57:27;15.40;99.90
61807;DHT22;47726;52.766;6.606;2022-09-09T01:11:21;15.50;99.90
61807;DHT22;47726;52.766;6.606;2022-09-09T01:14:05;15.50;99.90
61807;DHT22;47726;52.766;6.606;2022-09-09T01:16:35;15.50;99.90
61807;DHT22;47726;52.766;6.606;2022-09-09T01:19:03;15.50;99.90
61807;DHT22;47726;52.766;6.606;2022-09-09T01:22:03;15.40;99.90
61807;DHT22;47726;52.766;6.606;2022-09-09T01:24:38;15.40;99.90
61807;DHT22;47726;52.766;6.606;2022-09-09T01:27:06;15.40;99.90
61807;DHT22;47726;52.766;6.606;2022-09-09T01:29:33;15.40;99.90
61807;DHT22;47726;52.766;6.606;2022-09-09T01:32:01;15.40;99.90
61807;DHT22;47726;52.766;6.606;2022-09-09T01:34:31;15.40;99.90
61807;DHT22;47726;52.766;6.606;2022-09-09T01:37:02;15.40;99.90
61807;DHT22;47726;52.766;6.606;2022-09-09T01:39:34;15.40;99.90
61807;DHT22;47726;52.766;6.606;2022-09-09T01:42:01;15.40;99.90
61807;DHT22;47726;52.766;6.606;2022-09-09T01:44:28;15.40;99.90
61807;DHT22;47726;52.766;6.606;2022-09-09T01:46:54;15.40;99.90
61807;DHT22;47726;52.766;6.606;2022-09-09T01:49:20;15.40;99.90
61807;DHT22;47726;52.766;6.606;2022-09-09T01:51:52;15.50;99.90
61807;DHT22;47726;52.766;6.606;2022-09-09T01:54:22;15.50;99.90
61807;DHT22;47726;52.766;6.606;2022-09-09T01:57:24;15.50;99.90
61807;DHT22;47726;52.766;6.606;2022-09-09T02:00:08;15.50;99.90
61807;DHT22;47726;52.766;6.606;2022-09-09T02:02:57;15.50;99.90
61807;DHT22;47726;52.766;6.606;2022-09-09T02:05:41;15.50;99.90
61807;DHT22;47726;52.766;6.606;2022-09-09T02:08:15;15.50;99.90
61807;DHT22;47726;52.766;6.606;2022-09-09T02:13:14;15.50;99.90
61807;DHT22;47726;52.766;6.606;2022-09-09T02:18:43;15.60;99.90
61807;DHT22;47726;52.766;6.606;2022-09-09T02:21:13;15.60;99.90
61807;DHT22;47726;52.766;6.606;2022-09-09T02:23:41;15.50;99.90
61807;DHT22;47726;52.766;6.606;2022-09-09T02:26:09;15.50;99.90
61807;DHT22;47726;52.766;6.606;2022-09-09T02:28:36;15.50;99.90
61807;DHT22;47726;52.766;6.606;2022-09-09T02:31:03;15.60;99.90
61807;DHT22;47726;52.766;6.606;2022-09-09T02:33:35;15.50;99.90
61807;DHT22;47726;52.766;6.606;2022-09-09T02:36:03;15.60;99.90
61807;DHT22;47726;52.766;6.606;2022-09-09T02:38:35;15.60;99.90
61807;DHT22;47726;52.766;6.606;2022-09-09T02:41:01;15.60;99.90
61807;DHT22;47726;52.766;6.606;2022-09-09T02:43:32;15.60;99.90
61807;DHT22;47726;52.766;6.606;2022-09-09T02:46:16;15.60;99.90
61807;DHT22;47726;52.766;6.606;2022-09-09T02:48:59;15.60;99.90
61807;DHT22;47726;52.766;6.606;2022-09-09T02:51:42;15.60;99.90
61807;DHT22;47726;52.766;6.606;2022-09-09T02:54:12;15.60;99.90
61807;DHT22;47726;52.766;6.606;2022-09-09T02:56:48;15.60;99.90
61807;DHT22;47726;52.766;6.606;2022-09-09T02:59:16;15.60;99.90
61807;DHT22;47726;52.766;6.606;2022-09-09T03:01:43;15.60;99.90
61807;DHT22;47726;52.766;6.606;2022-09-09T03:04:09;15.60;99.90
61807;DHT22;47726;52.766;6.606;2022-09-09T03:06:35;15.60;99.90
61807;DHT22;47726;52.766;6.606;2022-09-09T03:09:01;15.70;99.90
61807;DHT22;47726;52.766;6.606;2022-09-09T03:11:28;15.70;99.90
61807;DHT22;47726;52.766;6.606;2022-09-09T03:13:54;15.70;99.90
61807;DHT22;47726;52.766;6.606;2022-09-09T03:16:22;15.70;99.90
61807;DHT22;47726;52.766;6.606;2022-09-09T03:18:48;15.70;99.90
61807;DHT22;47726;52.766;6.606;2022-09-09T03:21:13;15.70;99.90
61807;DHT22;47726;52.766;6.606;2022-09-09T03:23:40;15.70;99.90
61807;DHT22;47726;52.766;6.606;2022-09-09T03:26:05;15.70;99.90
61807;DHT22;47726;52.766;6.606;2022-09-09T03:28:31;15.70;99.90
61807;DHT22;47726;52.766;6.606;2022-09-09T03:31:01;15.70;99.90
61807;DHT22;47726;52.766;6.606;2022-09-09T03:33:27;15.70;99.90
61807;DHT22;47726;52.766;6.606;2022-09-09T03:35:53;15.70;99.90
61807;DHT22;47726;52.766;6.606;2022-09-09T03:38:25;15.70;99.90
61807;DHT22;47726;52.766;6.606;2022-09-09T03:40:54;15.60;99.90
61807;DHT22;47726;52.766;6.606;2022-09-09T03:43:21;15.60;99.90
61807;DHT22;47726;52.766;6.606;2022-09-09T03:45:47;15.60;99.90
61807;DHT22;47726;52.766;6.606;2022-09-09T03:48:14;15.60;99.90
61807;DHT22;47726;52.766;6.606;2022-09-09T03:50:48;15.60;99.90
61807;DHT22;47726;52.766;6.606;2022-09-09T03:53:15;15.60;99.90
61807;DHT22;47726;52.766;6.606;2022-09-09T03:55:49;15.60;99.90
61807;DHT22;47726;52.766;6.606;2022-09-09T03:58:16;15.60;99.90
61807;DHT22;47726;52.766;6.606;2022-09-09T04:00:53;15.60;99.90
61807;DHT22;47726;52.766;6.606;2022-09-09T04:03:19;15.60;99.90
61807;DHT22;47726;52.766;6.606;2022-09-09T04:05:44;15.60;99.90
61807;DHT22;47726;52.766;6.606;2022-09-09T04:08:10;15.50;99.90
61807;DHT22;47726;52.766;6.606;2022-09-09T04:10:36;15.60;99.90
61807;DHT22;47726;52.766;6.606;2022-09-09T04:13:03;15.50;99.90
61807;DHT22;47726;52.766;6.606;2022-09-09T04:15:30;15.50;99.90
61807;DHT22;47726;52.766;6.606;2022-09-09T04:17:56;15.60;99.90
61807;DHT22;47726;52.766;6.606;2022-09-09T04:20:21;15.50;99.90
61807;DHT22;47726;52.766;6.606;2022-09-09T04:22:47;15.50;99.90
61807;DHT22;47726;52.766;6.606;2022-09-09T04:25:13;15.50;99.90
61807;DHT22;47726;52.766;6.606;2022-09-09T04:27:40;15.50;99.90
61807;DHT22;47726;52.766;6.606;2022-09-09T04:30:06;15.50;99.90
61807;DHT22;47726;52.766;6.606;2022-09-09T04:32:35;15.50;99.90
61807;DHT22;47726;52.766;6.606;2022-09-09T04:35:02;15.50;99.90
61807;DHT22;47726;52.766;6.606;2022-09-09T04:37:28;15.50;99.90
61807;DHT22;47726;52.766;6.606;2022-09-09T04:39:54;15.50;99.90
61807;DHT22;47726;52.766;6.606;2022-09-09T04:42:19;15.40;99.90
61807;DHT22;47726;52.766;6.606;2022-09-09T04:44:45;15.40;99.90
61807;DHT22;47726;52.766;6.606;2022-09-09T04:47:11;15.50;99.90
61807;DHT22;47726;52.766;6.606;2022-09-09T04:49:36;15.50;99.90
61807;DHT22;47726;52.766;6.606;2022-09-09T04:52:03;15.50;99.90
61807;DHT22;47726;52.766;6.606;2022-09-09T04:54:29;15.50;99.90
61807;DHT22;47726;52.766;6.606;2022-09-09T04:56:54;15.50;99.90
61807;DHT22;47726;52.766;6.606;2022-09-09T04:59:21;15.50;99.90
61807;DHT22;47726;52.766;6.606;2022-09-09T05:01:48;15.40;99.90
61807;DHT22;47726;52.766;6.606;2022-09-09T05:04:13;15.50;99.90
61807;DHT22;47726;52.766;6.606;2022-09-09T05:06:40;15.50;99.90
61807;DHT22;47726;52.766;6.606;2022-09-09T05:09:07;15.40;99.90
61807;DHT22;47726;52.766;6.606;2022-09-09T05:11:33;15.40;99.90
61807;DHT22;47726;52.766;6.606;2022-09-09T05:14:01;15.40;99.90
61807;DHT22;47726;52.766;6.606;2022-09-09T05:16:26;15.40;99.90
61807;DHT22;47726;52.766;6.606;2022-09-09T05:18:52;15.40;99.90
61807;DHT22;47726;52.766;6.606;2022-09-09T05:21:20;15.40;99.90
61807;DHT22;47726;52.766;6.606;2022-09-09T05:23:46;15.40;99.90
61807;DHT22;47726;52.766;6.606;2022-09-09T05:26:14;15.40;99.90
61807;DHT22;47726;52.766;6.606;2022-09-09T05:28:40;15.40;99.90
61807;DHT22;47726;52.766;6.606;2022-09-09T05:31:07;15.40;99.90
61807;DHT22;47726;52.766;6.606;2022-09-09T05:33:35;15.40;99.90
61807;DHT22;47726;52.766;6.606;2022-09-09T05:36:04;15.40;99.90
61807;DHT22;47726;52.766;6.606;2022-09-09T05:38:31;15.40;99.90
61807;DHT22;47726;52.766;6.606;2022-09-09T05:40:57;15.40;99.90
61807;DHT22;47726;52.766;6.606;2022-09-09T05:43:24;15.40;99.90
61807;DHT22;47726;52.766;6.606;2022-09-09T05:46:00;15.40;99.90
61807;DHT22;47726;52.766;6.606;2022-09-09T05:48:34;15.40;99.90
61807;DHT22;47726;52.766;6.606;2022-09-09T05:51:00;15.40;99.90
61807;DHT22;47726;52.766;6.606;2022-09-09T05:53:26;15.40;99.90
61807;DHT22;47726;52.766;6.606;2022-09-09T05:56:00;15.40;99.90
61807;DHT22;47726;52.766;6.606;2022-09-09T05:58:27;15.50;99.90
61807;DHT22;47726;52.766;6.606;2022-09-09T06:00:52;15.50;99.90
61807;DHT22;47726;52.766;6.606;2022-09-09T06:03:19;15.50;99.90
61807;DHT22;47726;52.766;6.606;2022-09-09T06:06:00;15.50;99.90
61807;DHT22;47726;52.766;6.606;2022-09-09T06:08:26;15.50;99.90
61807;DHT22;47726;52.766;6.606;2022-09-09T06:10:52;15.60;99.90
61807;DHT22;47726;52.766;6.606;2022-09-09T06:13:18;15.50;99.90
61807;DHT22;47726;52.766;6.606;2022-09-09T06:15:50;15.50;99.90
61807;DHT22;47726;52.766;6.606;2022-09-09T06:18:18;15.60;99.90
61807;DHT22;47726;52.766;6.606;2022-09-09T06:20:56;15.60;99.90
61807;DHT22;47726;52.766;6.606;2022-09-09T06:23:22;15.60;99.90
61807;DHT22;47726;52.766;6.606;2022-09-09T06:25:48;15.60;99.90
61807;DHT22;47726;52.766;6.606;2022-09-09T06:28:15;15.60;99.90
61807;DHT22;47726;52.766;6.606;2022-09-09T06:30:41;15.60;99.90
61807;DHT22;47726;52.766;6.606;2022-09-09T06:33:07;15.70;99.90
61807;DHT22;47726;52.766;6.606;2022-09-09T06:35:32;15.60;99.90
61807;DHT22;47726;52.766;6.606;2022-09-09T06:37:58;15.60;99.90
61807;DHT22;47726;52.766;6.606;2022-09-09T06:40:24;15.60;99.90
61807;DHT22;47726;52.766;6.606;2022-09-09T06:42:50;15.70;99.90
61807;DHT22;47726;52.766;6.606;2022-09-09T06:45:16;15.70;99.90
61807;DHT22;47726;52.766;6.606;2022-09-09T06:47:42;15.70;99.90
61807;DHT22;47726;52.766;6.606;2022-09-09T06:50:08;15.70;99.90
61807;DHT22;47726;52.766;6.606;2022-09-09T06:52:34;15.70;99.90
61807;DHT22;47726;52.766;6.606;2022-09-09T06:54:59;15.70;99.90
61807;DHT22;47726;52.766;6.606;2022-09-09T06:57:25;15.80;99.90
61807;DHT22;47726;52.766;6.606;2022-09-09T06:59:50;15.70;99.90
61807;DHT22;47726;52.766;6.606;2022-09-09T07:02:16;15.80;99.90
61807;DHT22;47726;52.766;6.606;2022-09-09T07:04:41;15.80;99.90
61807;DHT22;47726;52.766;6.606;2022-09-09T07:07:08;15.80;99.90
61807;DHT22;47726;52.766;6.606;2022-09-09T07:09:35;15.80;99.90
61807;DHT22;47726;52.766;6.606;2022-09-09T07:12:00;15.90;99.90
61807;DHT22;47726;52.766;6.606;2022-09-09T07:14:26;15.90;99.90
61807;DHT22;47726;52.766;6.606;2022-09-09T07:16:52;16.00;99.90
61807;DHT22;47726;52.766;6.606;2022-09-09T07:19:18;16.10;99.90
61807;DHT22;47726;52.766;6.606;2022-09-09T07:21:43;16.20;99.90
61807;DHT22;47726;52.766;6.606;2022-09-09T07:24:10;16.40;99.90
61807;DHT22;47726;52.766;6.606;2022-09-09T07:26:37;16.50;99.90
61807;DHT22;47726;52.766;6.606;2022-09-09T07:29:03;16.60;99.90
61807;DHT22;47726;52.766;6.606;2022-09-09T07:31:34;16.80;99.90
61807;DHT22;47726;52.766;6.606;2022-09-09T07:34:02;17.00;99.90
61807;DHT22;47726;52.766;6.606;2022-09-09T07:36:31;17.30;99.90
61807;DHT22;47726;52.766;6.606;2022-09-09T07:38:59;17.50;99.90
61807;DHT22;47726;52.766;6.606;2022-09-09T07:41:29;17.70;99.90
61807;DHT22;47726;52.766;6.606;2022-09-09T07:43:56;17.90;99.90
61807;DHT22;47726;52.766;6.606;2022-09-09T07:46:23;18.00;99.90
61807;DHT22;47726;52.766;6.606;2022-09-09T07:48:53;18.10;99.90
61807;DHT22;47726;52.766;6.606;2022-09-09T07:51:23;18.10;99.90
61807;DHT22;47726;52.766;6.606;2022-09-09T07:53:52;18.20;99.90
61807;DHT22;47726;52.766;6.606;2022-09-09T07:56:18;18.20;99.90
61807;DHT22;47726;52.766;6.606;2022-09-09T07:58:50;18.20;99.90
61807;DHT22;47726;52.766;6.606;2022-09-09T08:04:03;18.10;99.90
61807;DHT22;47726;52.766;6.606;2022-09-09T08:06:32;18.10;99.90
61807;DHT22;47726;52.766;6.606;2022-09-09T08:08:59;18.20;99.90
61807;DHT22;47726;52.766;6.606;2022-09-09T08:11:26;18.20;99.90
61807;DHT22;47726;52.766;6.606;2022-09-09T08:13:53;18.20;99.90
61807;DHT22;47726;52.766;6.606;2022-09-09T08:16:23;18.30;99.90
61807;DHT22;47726;52.766;6.606;2022-09-09T08:18:49;18.40;99.90
61807;DHT22;47726;52.766;6.606;2022-09-09T08:21:18;18.40;99.90
61807;DHT22;47726;52.766;6.606;2022-09-09T08:23:45;18.30;99.90
61807;DHT22;47726;52.766;6.606;2022-09-09T08:26:14;18.30;99.90
61807;DHT22;47726;52.766;6.606;2022-09-09T08:28:41;18.40;99.90
61807;DHT22;47726;52.766;6.606;2022-09-09T08:31:08;18.40;99.90
61807;DHT22;47726;52.766;6.606;2022-09-09T08:33:34;18.30;99.90
61807;DHT22;47726;52.766;6.606;2022-09-09T08:36:01;18.20;99.90
61807;DHT22;47726;52.766;6.606;2022-09-09T08:38:27;18.30;99.90
61807;DHT22;47726;52.766;6.606;2022-09-09T08:40:58;18.30;99.90
61807;DHT22;47726;52.766;6.606;2022-09-09T08:43:29;18.20;99.90
61807;DHT22;47726;52.766;6.606;2022-09-09T08:46:21;18.20;99.90
61807;DHT22;47726;52.766;6.606;2022-09-09T08:48:58;18.20;99.90
61807;DHT22;47726;52.766;6.606;2022-09-09T08:51:28;18.10;99.90
61807;DHT22;47726;52.766;6.606;2022-09-09T08:53:58;18.10;99.90
61807;DHT22;47726;52.766;6.606;2022-09-09T08:56:26;18.20;99.90
61807;DHT22;47726;52.766;6.606;2022-09-09T08:58:54;18.20;99.90
61807;DHT22;47726;52.766;6.606;2022-09-09T09:10:13;18.50;99.90
61807;DHT22;47726;52.766;6.606;2022-09-09T09:12:41;18.50;99.90
61807;DHT22;47726;52.766;6.606;2022-09-09T09:15:24;18.50;99.90
61807;DHT22;47726;52.766;6.606;2022-09-09T09:17:50;18.50;99.90
61807;DHT22;47726;52.766;6.606;2022-09-09T09:20:20;18.40;99.90
61807;DHT22;47726;52.766;6.606;2022-09-09T09:22:50;18.50;99.90
61807;DHT22;47726;52.766;6.606;2022-09-09T09:25:23;18.50;99.90
61807;DHT22;47726;52.766;6.606;2022-09-09T09:28:07;18.50;99.90
61807;DHT22;47726;52.766;6.606;2022-09-09T09:30:42;18.60;99.90
61807;DHT22;47726;52.766;6.606;2022-09-09T09:33:46;18.90;99.90
61807;DHT22;47726;52.766;6.606;2022-09-09T09:36:12;19.20;99.90
61807;DHT22;47726;52.766;6.606;2022-09-09T09:39:00;19.30;99.90
61807;DHT22;47726;52.766;6.606;2022-09-09T09:41:40;19.40;99.90
61807;DHT22;47726;52.766;6.606;2022-09-09T09:44:23;19.40;99.90
61807;DHT22;47726;52.766;6.606;2022-09-09T09:46:49;19.40;99.90
61807;DHT22;47726;52.766;6.606;2022-09-09T09:49:14;19.40;99.90
61807;DHT22;47726;52.766;6.606;2022-09-09T09:51:40;19.40;99.90
61807;DHT22;47726;52.766;6.606;2022-09-09T09:54:13;19.40;99.90
61807;DHT22;47726;52.766;6.606;2022-09-09T09:56:44;19.40;99.90
61807;DHT22;47726;52.766;6.606;2022-09-09T10:01:54;19.30;99.90
61807;DHT22;47726;52.766;6.606;2022-09-09T10:04:23;19.20;99.90
61807;DHT22;47726;52.766;6.606;2022-09-09T10:06:50;19.20;99.90
61807;DHT22;47726;52.766;6.606;2022-09-09T10:11:53;19.10;99.90
61807;DHT22;47726;52.766;6.606;2022-09-09T10:14:26;19.20;99.90
61807;DHT22;47726;52.766;6.606;2022-09-09T10:17:05;19.30;99.90
61807;DHT22;47726;52.766;6.606;2022-09-09T10:19:35;19.40;99.90
61807;DHT22;47726;52.766;6.606;2022-09-09T10:24:49;19.70;99.90
61807;DHT22;47726;52.766;6.606;2022-09-09T10:30:27;19.90;99.90
61807;DHT22;47726;52.766;6.606;2022-09-09T10:33:08;19.80;99.90
61807;DHT22;47726;52.766;6.606;2022-09-09T10:35:57;19.80;99.90
61807;DHT22;47726;52.766;6.606;2022-09-09T10:38:42;19.80;99.90
61807;DHT22;47726;52.766;6.606;2022-09-09T10:41:42;19.80;99.90
61807;DHT22;47726;52.766;6.606;2022-09-09T10:44:23;19.90;99.90
61807;DHT22;47726;52.766;6.606;2022-09-09T10:47:25;20.10;99.90
61807;DHT22;47726;52.766;6.606;2022-09-09T10:55:50;20.00;99.90
61807;DHT22;47726;52.766;6.606;2022-09-09T10:58:52;20.00;99.90
61807;DHT22;47726;52.766;6.606;2022-09-09T11:03:57;19.70;99.90
61807;DHT22;47726;52.766;6.606;2022-09-09T11:06:32;19.70;99.90
61807;DHT22;47726;52.766;6.606;2022-09-09T11:09:02;19.70;99.90
61807;DHT22;47726;52.766;6.606;2022-09-09T11:11:41;19.80;99.90
61807;DHT22;47726;52.766;6.606;2022-09-09T11:16:59;19.90;99.90
61807;DHT22;47726;52.766;6.606;2022-09-09T11:19:43;20.00;99.90
61807;DHT22;47726;52.766;6.606;2022-09-09T11:22:29;20.00;99.90
61807;DHT22;47726;52.766;6.606;2022-09-09T11:27:33;20.00;99.90
61807;DHT22;47726;52.766;6.606;2022-09-09T11:30:17;20.00;99.90
61807;DHT22;47726;52.766;6.606;2022-09-09T11:40:47;19.70;99.90
61807;DHT22;47726;52.766;6.606;2022-09-09T11:43:47;19.60;99.90
61807;DHT22;47726;52.766;6.606;2022-09-09T11:46:16;19.60;99.90
61807;DHT22;47726;52.766;6.606;2022-09-09T11:48:45;19.60;99.90
61807;DHT22;47726;52.766;6.606;2022-09-09T11:53:52;19.80;99.90
61807;DHT22;47726;52.766;6.606;2022-09-09T11:56:26;19.90;99.90
61807;DHT22;47726;52.766;6.606;2022-09-09T11:59:16;20.00;99.90
61807;DHT22;47726;52.766;6.606;2022-09-09T12:01:45;20.20;99.90
61807;DHT22;47726;52.766;6.606;2022-09-09T12:06:56;20.30;99.90
61807;DHT22;47726;52.766;6.606;2022-09-09T12:12:29;20.40;99.90
61807;DHT22;47726;52.766;6.606;2022-09-09T12:17:54;20.30;99.90
61807;DHT22;47726;52.766;6.606;2022-09-09T12:20:38;20.30;99.90
61807;DHT22;47726;52.766;6.606;2022-09-09T12:23:23;20.30;99.90
61807;DHT22;47726;52.766;6.606;2022-09-09T12:29:10;20.30;99.90
61807;DHT22;47726;52.766;6.606;2022-09-09T12:31:37;20.40;99.90
61807;DHT22;47726;52.766;6.606;2022-09-09T12:34:24;20.40;99.90
61807;DHT22;47726;52.766;6.606;2022-09-09T12:36:57;20.50;99.90
61807;DHT22;47726;52.766;6.606;2022-09-09T12:39:38;20.50;99.90
61807;DHT22;47726;52.766;6.606;2022-09-09T12:42:16;20.40;99.90
61807;DHT22;47726;52.766;6.606;2022-09-09T12:44:57;20.40;99.90
61807;DHT22;47726;52.766;6.606;2022-09-09T12:47:38;20.30;99.90
61807;DHT22;47726;52.766;6.606;2022-09-09T12:50:23;20.20;99.90
61807;DHT22;47726;52.766;6.606;2022-09-09T12:52:54;20.20;99.90
61807;DHT22;47726;52.766;6.606;2022-09-09T12:55:28;20.20;99.90
61807;DHT22;47726;52.766;6.606;2022-09-09T12:57:55;20.30;99.90
61807;DHT22;47726;52.766;6.606;2022-09-09T13:00:23;20.50;99.90
61807;DHT22;47726;52.766;6.606;2022-09-09T13:02:55;20.60;99.90
61807;DHT22;47726;52.766;6.606;2022-09-09T13:05:26;20.60;99.90
61807;DHT22;47726;52.766;6.606;2022-09-09T13:08:04;20.70;99.90
61807;DHT22;47726;52.766;6.606;2022-09-09T13:10:43;20.70;99.90
61807;DHT22;47726;52.766;6.606;2022-09-09T13:13:16;20.80;99.90
61807;DHT22;47726;52.766;6.606;2022-09-09T13:15:54;20.90;99.90
61807;DHT22;47726;52.766;6.606;2022-09-09T13:18:23;20.80;99.90
61807;DHT22;47726;52.766;6.606;2022-09-09T13:20:49;20.80;99.90
61807;DHT22;47726;52.766;6.606;2022-09-09T13:23:18;20.80;99.90
61807;DHT22;47726;52.766;6.606;2022-09-09T13:25:59;20.70;99.90
61807;DHT22;47726;52.766;6.606;2022-09-09T13:28:27;20.70;99.90
61807;DHT22;47726;52.766;6.606;2022-09-09T13:31:01;20.70;99.90
61807;DHT22;47726;52.766;6.606;2022-09-09T13:33:32;20.70;99.90
61807;DHT22;47726;52.766;6.606;2022-09-09T13:36:05;20.60;99.90
61807;DHT22;47726;52.766;6.606;2022-09-09T13:38:35;20.60;99.90
61807;DHT22;47726;52.766;6.606;2022-09-09T13:41:09;20.50;99.90
61807;DHT22;47726;52.766;6.606;2022-09-09T13:43:43;20.50;99.90
61807;DHT22;47726;52.766;6.606;2022-09-09T13:46:38;20.50;99.90
61807;DHT22;47726;52.766;6.606;2022-09-09T13:51:35;20.40;99.90
61807;DHT22;47726;52.766;6.606;2022-09-09T13:54:03;20.30;99.90
61807;DHT22;47726;52.766;6.606;2022-09-09T13:56:30;20.20;99.90
61807;DHT22;47726;52.766;6.606;2022-09-09T13:58:57;20.20;99.90
61807;DHT22;47726;52.766;6.606;2022-09-09T14:01:23;20.30;99.90
61807;DHT22;47726;52.766;6.606;2022-09-09T14:03:49;20.20;99.90
61807;DHT22;47726;52.766;6.606;2022-09-09T14:06:15;20.20;99.90
61807;DHT22;47726;52.766;6.606;2022-09-09T14:08:40;20.10;99.90
61807;DHT22;47726;52.766;6.606;2022-09-09T14:11:07;20.20;99.90
61807;DHT22;47726;52.766;6.606;2022-09-09T14:13:36;20.30;99.90
61807;DHT22;47726;52.766;6.606;2022-09-09T14:16:02;20.50;99.90
61807;DHT22;47726;52.766;6.606;2022-09-09T14:18:28;20.40;99.90
61807;DHT22;47726;52.766;6.606;2022-09-09T14:20:54;20.40;99.90
61807;DHT22;47726;52.766;6.606;2022-09-09T14:23:20;20.40;99.90
61807;DHT22;47726;52.766;6.606;2022-09-09T14:25:47;20.40;99.90
61807;DHT22;47726;52.766;6.606;2022-09-09T14:28:14;20.50;99.90
61807;DHT22;47726;52.766;6.606;2022-09-09T14:30:42;20.50;99.90
61807;DHT22;47726;52.766;6.606;2022-09-09T14:33:10;20.50;99.90
61807;DHT22;47726;52.766;6.606;2022-09-09T14:35:36;20.40;99.90
61807;DHT22;47726;52.766;6.606;2022-09-09T14:38:03;20.40;99.90
61807;DHT22;47726;52.766;6.606;2022-09-09T14:40:28;20.20;99.90
61807;DHT22;47726;52.766;6.606;2022-09-09T14:42:54;20.20;99.90
61807;DHT22;47726;52.766;6.606;2022-09-09T14:45:22;20.20;99.90
61807;DHT22;47726;52.766;6.606;2022-09-09T14:47:50;20.20;99.90
61807;DHT22;47726;52.766;6.606;2022-09-09T14:50:16;20.30;99.90
61807;DHT22;47726;52.766;6.606;2022-09-09T14:52:41;20.30;99.90
61807;DHT22;47726;52.766;6.606;2022-09-09T14:55:10;20.30;99.90
61807;DHT22;47726;52.766;6.606;2022-09-09T14:57:36;20.30;99.90
61807;DHT22;47726;52.766;6.606;2022-09-09T15:00:03;20.30;99.90
61807;DHT22;47726;52.766;6.606;2022-09-09T15:02:30;20.20;99.90
61807;DHT22;47726;52.766;6.606;2022-09-09T15:04:56;20.20;99.90
61807;DHT22;47726;52.766;6.606;2022-09-09T15:07:25;20.20;99.90
61807;DHT22;47726;52.766;6.606;2022-09-09T15:09:52;20.20;99.90
61807;DHT22;47726;52.766;6.606;2022-09-09T15:12:18;20.20;99.90
61807;DHT22;47726;52.766;6.606;2022-09-09T15:14:45;20.20;99.90
61807;DHT22;47726;52.766;6.606;2022-09-09T15:17:11;20.20;99.90
61807;DHT22;47726;52.766;6.606;2022-09-09T15:19:37;20.20;99.90
61807;DHT22;47726;52.766;6.606;2022-09-09T15:22:03;20.20;99.90
61807;DHT22;47726;52.766;6.606;2022-09-09T15:24:32;20.10;99.90
61807;DHT22;47726;52.766;6.606;2022-09-09T15:26:58;20.10;99.90
61807;DHT22;47726;52.766;6.606;2022-09-09T15:29:24;20.00;99.90
61807;DHT22;47726;52.766;6.606;2022-09-09T15:31:50;20.00;99.90
61807;DHT22;47726;52.766;6.606;2022-09-09T15:34:16;20.00;99.90
61807;DHT22;47726;52.766;6.606;2022-09-09T15:36:43;19.90;99.90
61807;DHT22;47726;52.766;6.606;2022-09-09T15:39:11;19.90;99.90
61807;DHT22;47726;52.766;6.606;2022-09-09T15:41:38;19.90;99.90
61807;DHT22;47726;52.766;6.606;2022-09-09T15:44:05;19.80;99.90
61807;DHT22;47726;52.766;6.606;2022-09-09T15:49:09;19.70;99.90
61807;DHT22;47726;52.766;6.606;2022-09-09T15:51:36;19.70;99.90
61807;DHT22;47726;52.766;6.606;2022-09-09T15:54:03;19.60;99.90
61807;DHT22;47726;52.766;6.606;2022-09-09T15:56:29;19.60;99.90
61807;DHT22;47726;52.766;6.606;2022-09-09T15:59:02;19.60;99.90
61807;DHT22;47726;52.766;6.606;2022-09-09T16:01:31;19.50;99.90
61807;DHT22;47726;52.766;6.606;2022-09-09T16:03:58;19.50;99.90
61807;DHT22;47726;52.766;6.606;2022-09-09T16:06:26;19.60;99.90
61807;DHT22;47726;52.766;6.606;2022-09-09T16:08:53;19.60;99.90
61807;DHT22;47726;52.766;6.606;2022-09-09T16:13:48;19.60;99.90
61807;DHT22;47726;52.766;6.606;2022-09-09T16:16:15;19.60;99.90
61807;DHT22;47726;52.766;6.606;2022-09-09T16:18:43;19.60;99.90
61807;DHT22;47726;52.766;6.606;2022-09-09T16:21:14;19.70;99.90
61807;DHT22;47726;52.766;6.606;2022-09-09T16:23:41;19.60;99.90
61807;DHT22;47726;52.766;6.606;2022-09-09T16:26:08;19.60;99.90
61807;DHT22;47726;52.766;6.606;2022-09-09T16:28:35;19.60;99.90
61807;DHT22;47726;52.766;6.606;2022-09-09T16:31:05;19.60;99.90
61807;DHT22;47726;52.766;6.606;2022-09-09T16:33:30;19.60;99.90
61807;DHT22;47726;52.766;6.606;2022-09-09T16:35:56;19.60;99.90
61807;DHT22;47726;52.766;6.606;2022-09-09T16:38:22;19.60;99.90
61807;DHT22;47726;52.766;6.606;2022-09-09T16:40:48;19.50;99.90
61807;DHT22;47726;52.766;6.606;2022-09-09T16:43:15;19.50;99.90
61807;DHT22;47726;52.766;6.606;2022-09-09T16:45:42;19.50;99.90
61807;DHT22;47726;52.766;6.606;2022-09-09T16:48:08;19.40;99.90
61807;DHT22;47726;52.766;6.606;2022-09-09T16:50:34;19.40;99.90
61807;DHT22;47726;52.766;6.606;2022-09-09T16:52:59;19.40;99.90
61807;DHT22;47726;52.766;6.606;2022-09-09T16:55:28;19.40;99.90
61807;DHT22;47726;52.766;6.606;2022-09-09T16:57:53;19.40;99.90
61807;DHT22;47726;52.766;6.606;2022-09-09T17:00:19;19.40;99.90
61807;DHT22;47726;52.766;6.606;2022-09-09T17:02:44;19.30;99.90
61807;DHT22;47726;52.766;6.606;2022-09-09T17:05:10;19.30;99.90
61807;DHT22;47726;52.766;6.606;2022-09-09T17:07:36;19.30;99.90
61807;DHT22;47726;52.766;6.606;2022-09-09T17:10:02;19.30;99.90
61807;DHT22;47726;52.766;6.606;2022-09-09T17:12:27;19.20;99.90
61807;DHT22;47726;52.766;6.606;2022-09-09T17:14:53;19.10;99.90
61807;DHT22;47726;52.766;6.606;2022-09-09T17:17:20;19.10;99.90
61807;DHT22;47726;52.766;6.606;2022-09-09T17:19:46;19.00;99.90
61807;DHT22;47726;52.766;6.606;2022-09-09T17:22:12;19.00;99.90
61807;DHT22;47726;52.766;6.606;2022-09-09T17:24:38;19.00;99.90
61807;DHT22;47726;52.766;6.606;2022-09-09T17:27:05;18.90;99.90